Logo AVAMET
Benvolgut visitant, si us plau, ingressa Recuperar contrasenya

Llutxent Coop. del Camp

Dades diàries. Acumulats / Últims 30 dies disponibles

Data Temperatura (°C) Humitat rel. (%) Pressió rel. (hPa) Vent (km/h) Precipitació
Mínima Mitjana Màxima Amplitud
tèrmica
Mínima Mitjana Màxima Mínima Mitjana Màxima Predom. Mitjana Ràfega
màxima
Total
(mm)
Índex-n
Mínima Mitjana Màxima Mínima Mitjana Màxima n
0 a 1
P0 max
mm 5'
Dades mensuals acumulades fins l'últim dia disponible
12/2019 6,5 8,4 12,9 11,6 10,8 15,4 18,5 12,0 32 77 99 1.002 1.016 1.026   7,1 59,5 152,4
Dades anuals acumulades fins l'últim dia disponible
2019 -0,4 12,7 25,3 17,5 9,9 22,8 40,4 40,8 13 66 100 991 1.015 1.033   5,9 77,2 612,6
Últims 30 dies disponibles
14-12-2019 8,5     12,7     16,7 8,2 58 70 79 1.013 1.015 1.016 W 9,8 33,8 0,0
13-12-2019 12,9     15,3     17,4 4,5 56 66 75 1.008 1.010 1.014 W 17,4 49,9 0,0
12-12-2019 6,5     10,2     12,9 6,4 56 65 74 1.010 1.017 1.022 W 13,4 49,9 0,0
11-12-2019 7,1     11,6     17,9 10,8 36 54 73 1.015 1.019 1.022 WNW 8,9 56,3 0,0
10-12-2019 7,7     12,0     18,5 10,8 32 53 73 1.021 1.023 1.025 WNW 4,7 16,1 0,0
09-12-2019 9,4     12,7     18,1 8,7 35 65 88 1.021 1.023 1.026 WNW 5,3 29,0 0,0
08-12-2019 7,9     12,1     18,2 10,3 52 74 98 1.020 1.021 1.023 WNW 3,2 17,7 0,2
07-12-2019 8,4     11,4     17,4 9,0 62 90 99 1.020 1.022 1.023 WNW 0,6 12,9 0,4
06-12-2019 9,3     10,9     13,3 4,0 87 95 98 1.020 1.021 1.023 WNW 1,1 11,3 0,0
05-12-2019 8,7     10,6     13,5 4,8 84 94 98 1.008 1.015 1.020 WNW 1,9 12,9 9,2 0,46 1,20
04-12-2019 8,2     9,8     10,8 2,6 89 97 98 1.002 1.005 1.008 WNW 7,7 59,5 39,4 0,58 1,10
03-12-2019 6,8     9,4     11,2 4,4 82 91 98 1.009 1.013 1.016 ENE 13,4 46,7 38,2 0,37 1,20
02-12-2019 7,4     10,0     11,8 4,4 76 94 98 1.010 1.012 1.016 E 8,7 46,7 65,0 0,67 1,80
01-12-2019 8,4     13,3     17,5 9,1 45 65 84 1.008 1.010 1.013 WNW 3,9 27,4 0,0
30-11-2019 11,5     15,6     21,6 10,1 44 69 86 1.013 1.016 1.020 O 5,0 25,7 0,0
29-11-2019 12,2     15,2     19,7 7,5 58 70 86 1.015 1.017 1.019 WNW 7,2 30,6 0,0
28-11-2019 10,2     13,3     17,5 7,3 56 69 79 1.012 1.014 1.017 WNW 8,0 30,6 0,0
27-11-2019 12,4     15,7     19,2 6,8 43 64 79 1.007 1.009 1.013 WNW 11,4 43,5 0,0
26-11-2019 12,0     15,4     20,3 8,3 52 73 85 1.008 1.011 1.014 WNW 7,4 33,8 0,0
25-11-2019 9,4     13,8     17,8 8,4 64 74 85 1.011 1.013 1.014 WNW 8,7 35,4 0,0
24-11-2019 7,0     10,9     15,3 8,3 46 60 75 1.007 1.010 1.013 WNW 10,8 35,4 0,0
23-11-2019 8,4     12,4     14,6 6,2 47 62 79 992 998 1.007 WNW 16,9 57,9 1,2
22-11-2019 8,4     12,6     17,5 9,1 61 81 91 992 1.000 1.007 SW 5,3 43,5 1,2
21-11-2019 6,9     10,8     14,9 8,0 62 79 93 1.006 1.007 1.009 WSW 3,4 19,3 0,2
20-11-2019 5,4     10,0     15,8 10,4 39 67 93 1.007 1.010 1.014 WNW 1,8 20,9 2,6
19-11-2019 3,6     8,3     14,4 10,8 39 63 81 1.013 1.015 1.017 WNW 3,2 22,5 0,0
18-11-2019 5,8     9,5     13,9 8,1 52 77 94 1.006 1.009 1.015 WNW 1,3 11,3 2,0
17-11-2019 4,2     9,5     14,7 10,5 43 64 92 1.009 1.012 1.014 WNW 9,7 43,5 3,8
16-11-2019 3,7     8,2     13,7 10,0 41 63 81 1.005 1.010 1.014 WNW 4,7 22,5 0,0
15-11-2019 6,3     9,3     13,4 7,1 44 62 77 999 1.002 1.005 WNW 8,0 37,0 0,0
Últims 13 mesos disponibles
11/2019 3,6 9,2 18,2 13,3 13,4 17,5 25,0 21,4 51 64 81 998 1.009 1.017 WNW 8,0 61,2 11,8
10/2019 8,7 14,5 18,1 19,0 13,7 24,2 32,1 23,4 43 70 92 1.007 1.014 1.020 O 3,7 37,0 25,6
09/2019 12,4 18,2 21,3 22,4 20,5 27,1 33,4 21,0 45 76 92 1.008 1.015 1.022 WNW 5,4 77,2 163,6
08/2019 16,1 20,6 25,3 25,8 26,2 31,5 40,4 24,3 33 69 86 1.008 1.013 1.017 E 5,8 54,7 29,4
07/2019 18,8 20,8 24,9 26,3 27,2 32,0 37,7 18,9 39 64 78 1.004 1.011 1.018 E 6,8 59,5 0,8
06/2019 11,1 16,1 20,1 22,2 20,4 28,2 35,7 24,6 38 62 79 1.006 1.013 1.019 WNW 5,8 56,3 0,0
05/2019 7,2 13,0 18,4 18,0 17,4 23,4 30,3 23,1 51 66 83 1.003 1.013 1.022 WNW 5,8 57,9 6,0
04/2019 6,4 9,8 13,0 13,9 11,8 18,7 27,4 21,0 39 71 98 998 1.011 1.023 WNW 7,3 70,8 167,2
03/2019 3,5 7,9 14,1 13,4 11,8 19,0 26,1 22,6 30 58 94 1.008 1.021 1.028 WNW 5,2 56,3 48,8
02/2019 0,7 5,9 11,4 11,1 10,8 16,9 24,1 23,4 34 64 87 994 1.023 1.032 WNW 5,4 69,2 0,6
01/2019 -0,4 5,2 11,2 9,9 9,9 15,3 19,5 19,9 42 60 81 1.001 1.017 1.029 WNW 5,5 57,9 6,4
12/2018 3,1 7,7 12,6 12,0 12,5 17,7 24,6 21,5 44 69 95 1.007 1.024 1.029 WNW 3,6 43,5 33,6
11/2018 6,4 9,6 13,6 12,9 12,9 16,9 22,8 16,4 38 76 98 999 1.014 1.022 WNW 4,6 59,5 204,2
Tots els anys disponibles
2018 0,5 12,6 23,6 17,1 5,7 22,2 37,1 36,6 WNW 5,7 88,5 692,0
2017 -1,4 12,6 23,3 17,4 6,5 22,8 38,3 39,7 WNW 5,5 101,4 415,2
Temperatura (°C)
Humitat relativa (%)
Velocitat del vent i ràfega màxima (km/h)
Direcció del vent (°)
Pressió (hPa)
Precipitació (mm)
Nota sobre les dades: s'avisa a l'usuari de la provisionalitat i no oficialitat d'aquestes dades
Logo AVAMET blanc
Web allotjada a Sollutia
Llicència de Creative CommonsLa web d'AVAMET i els seus continguts estan subjectes a una llicència de
Reconeixement - No Comercial - Compartir igual
Últimes estacions: Chella - El Rincón (Soci), Aielo de Malferit - Centre (Soci), Faura (Inforatge), Benifairó de les Valls (Inforatge), Xàbia - Les Valls (Soci) - - -